Terminal Aerodrome Forecast
Issued by NWS

Home | Current Version | Previous Version | Text Only | Print | Product List | Glossary On
Versions: 1 2 3 4 5 6 7 8 9 10 11 12 13 14 15
000
FTAK31 PAJN 272300 RRA
TAFAYA
TAF
PAYA 272346Z 2800/2824 12006KT P6SM -SHRA SCT015 BKN035
      TEMPO 2800/2803 14006G16KT 5SM -SHRA BR BKN015 OVC025
     FM280300 10008KT P6SM VCSH SCT020 OVC040
     FM281000 09008KT P6SM SCT020 BKN040 BKN060
     FM281500 06010KT P6SM FEW005 SCT020 BKN120
      AMD LTD TO CLD VIS AND WIND 2801/2810=

USA.gov is the U.S. government's official web portal to all federal, state and local government web resources and services.